sensor_id;sensor_type;location;lat;lon;timestamp;P1;durP1;ratioP1;P2;durP2;ratioP2
61590;SDS011;71994;52.410;-1.966;2024-01-10T00:02:08;2.88;;;0.90;;
61590;SDS011;71994;52.410;-1.966;2024-01-10T00:05:30;3.35;;;1.10;;
61590;SDS011;71994;52.410;-1.966;2024-01-10T00:08:53;2.50;;;0.98;;
61590;SDS011;71994;52.410;-1.966;2024-01-10T00:12:15;2.97;;;1.13;;
61590;SDS011;71994;52.410;-1.966;2024-01-10T00:15:38;2.53;;;1.20;;
61590;SDS011;71994;52.410;-1.966;2024-01-10T00:19:03;3.72;;;1.10;;
61590;SDS011;71994;52.410;-1.966;2024-01-10T00:22:26;2.97;;;1.02;;
61590;SDS011;71994;52.410;-1.966;2024-01-10T00:25:48;2.42;;;0.93;;
61590;SDS011;71994;52.410;-1.966;2024-01-10T00:29:11;2.95;;;1.27;;
61590;SDS011;71994;52.410;-1.966;2024-01-10T00:32:34;2.10;;;1.08;;
61590;SDS011;71994;52.410;-1.966;2024-01-10T00:35:59;3.92;;;0.98;;
61590;SDS011;71994;52.410;-1.966;2024-01-10T00:39:22;1.92;;;0.90;;
61590;SDS011;71994;52.410;-1.966;2024-01-10T00:42:45;2.97;;;0.90;;
61590;SDS011;71994;52.410;-1.966;2024-01-10T00:46:07;2.80;;;1.10;;
61590;SDS011;71994;52.410;-1.966;2024-01-10T00:49:29;2.67;;;0.90;;
61590;SDS011;71994;52.410;-1.966;2024-01-10T00:52:55;2.88;;;0.90;;
61590;SDS011;71994;52.410;-1.966;2024-01-10T00:56:18;4.03;;;0.85;;
61590;SDS011;71994;52.410;-1.966;2024-01-10T00:59:40;3.15;;;0.98;;
61590;SDS011;71994;52.410;-1.966;2024-01-10T01:03:03;2.65;;;1.02;;
61590;SDS011;71994;52.410;-1.966;2024-01-10T01:06:26;2.88;;;0.95;;
61590;SDS011;71994;52.410;-1.966;2024-01-10T01:09:51;2.35;;;0.90;;
61590;SDS011;71994;52.410;-1.966;2024-01-10T01:13:14;1.92;;;0.80;;
61590;SDS011;71994;52.410;-1.966;2024-01-10T01:16:36;2.15;;;0.88;;
61590;SDS011;71994;52.410;-1.966;2024-01-10T01:19:59;2.80;;;0.90;;
61590;SDS011;71994;52.410;-1.966;2024-01-10T01:23:23;2.13;;;0.80;;
61590;SDS011;71994;52.410;-1.966;2024-01-10T01:26:49;2.00;;;0.73;;
61590;SDS011;71994;52.410;-1.966;2024-01-10T01:30:11;2.25;;;0.77;;
61590;SDS011;71994;52.410;-1.966;2024-01-10T01:33:34;2.30;;;0.57;;
61590;SDS011;71994;52.410;-1.966;2024-01-10T01:36:58;1.88;;;0.82;;
61590;SDS011;71994;52.410;-1.966;2024-01-10T01:40:20;2.03;;;0.90;;
61590;SDS011;71994;52.410;-1.966;2024-01-10T01:43:45;1.60;;;0.80;;
61590;SDS011;71994;52.410;-1.966;2024-01-10T01:47:08;2.20;;;0.88;;
61590;SDS011;71994;52.410;-1.966;2024-01-10T01:50:31;3.40;;;1.30;;
61590;SDS011;71994;52.410;-1.966;2024-01-10T01:54:02;2.78;;;0.85;;
61590;SDS011;71994;52.410;-1.966;2024-01-10T01:57:28;1.75;;;0.73;;
61590;SDS011;71994;52.410;-1.966;2024-01-10T02:00:54;2.35;;;0.55;;
61590;SDS011;71994;52.410;-1.966;2024-01-10T02:04:17;2.00;;;0.95;;
61590;SDS011;71994;52.410;-1.966;2024-01-10T02:07:41;2.33;;;0.90;;
61590;SDS011;71994;52.410;-1.966;2024-01-10T02:11:04;1.60;;;0.75;;
61590;SDS011;71994;52.410;-1.966;2024-01-10T02:14:27;2.20;;;0.95;;
61590;SDS011;71994;52.410;-1.966;2024-01-10T02:17:53;1.52;;;0.60;;
61590;SDS011;71994;52.410;-1.966;2024-01-10T02:21:15;1.88;;;0.80;;
61590;SDS011;71994;52.410;-1.966;2024-01-10T02:24:38;2.30;;;0.73;;
61590;SDS011;71994;52.410;-1.966;2024-01-10T02:28:04;2.10;;;0.73;;
61590;SDS011;71994;52.410;-1.966;2024-01-10T02:31:27;1.85;;;0.80;;
61590;SDS011;71994;52.410;-1.966;2024-01-10T02:34:50;1.65;;;0.73;;
61590;SDS011;71994;52.410;-1.966;2024-01-10T02:38:13;2.40;;;0.80;;
61590;SDS011;71994;52.410;-1.966;2024-01-10T02:41:36;2.63;;;0.82;;
61590;SDS011;71994;52.410;-1.966;2024-01-10T02:45:02;2.33;;;0.80;;
61590;SDS011;71994;52.410;-1.966;2024-01-10T02:48:25;2.50;;;0.77;;
61590;SDS011;71994;52.410;-1.966;2024-01-10T02:51:48;1.92;;;0.80;;
61590;SDS011;71994;52.410;-1.966;2024-01-10T02:55:11;2.38;;;0.80;;
61590;SDS011;71994;52.410;-1.966;2024-01-10T02:58:33;2.08;;;0.70;;
61590;SDS011;71994;52.410;-1.966;2024-01-10T03:01:59;1.90;;;0.85;;
61590;SDS011;71994;52.410;-1.966;2024-01-10T03:05:21;1.88;;;0.73;;
61590;SDS011;71994;52.410;-1.966;2024-01-10T03:08:44;2.25;;;0.80;;
61590;SDS011;71994;52.410;-1.966;2024-01-10T03:12:06;2.35;;;0.75;;
61590;SDS011;71994;52.410;-1.966;2024-01-10T03:15:29;1.95;;;0.70;;
61590;SDS011;71994;52.410;-1.966;2024-01-10T03:18:54;2.38;;;0.73;;
61590;SDS011;71994;52.410;-1.966;2024-01-10T03:22:17;3.25;;;0.85;;
61590;SDS011;71994;52.410;-1.966;2024-01-10T03:25:40;1.33;;;0.70;;
61590;SDS011;71994;52.410;-1.966;2024-01-10T03:29:02;2.65;;;0.60;;
61590;SDS011;71994;52.410;-1.966;2024-01-10T03:32:25;1.80;;;0.60;;
61590;SDS011;71994;52.410;-1.966;2024-01-10T03:35:50;1.35;;;0.70;;
61590;SDS011;71994;52.410;-1.966;2024-01-10T03:39:16;1.83;;;0.70;;
61590;SDS011;71994;52.410;-1.966;2024-01-10T03:42:39;2.33;;;0.70;;
61590;SDS011;71994;52.410;-1.966;2024-01-10T03:46:01;2.03;;;0.85;;
61590;SDS011;71994;52.410;-1.966;2024-01-10T03:49:24;1.48;;;0.70;;
61590;SDS011;71994;52.410;-1.966;2024-01-10T03:52:50;1.52;;;0.70;;
61590;SDS011;71994;52.410;-1.966;2024-01-10T03:56:12;1.23;;;0.57;;
61590;SDS011;71994;52.410;-1.966;2024-01-10T03:59:35;1.98;;;0.50;;
61590;SDS011;71994;52.410;-1.966;2024-01-10T04:02:57;1.27;;;0.70;;
61590;SDS011;71994;52.410;-1.966;2024-01-10T04:06:20;1.38;;;0.60;;
61590;SDS011;71994;52.410;-1.966;2024-01-10T04:09:45;1.52;;;0.50;;
61590;SDS011;71994;52.410;-1.966;2024-01-10T04:13:08;2.60;;;0.80;;
61590;SDS011;71994;52.410;-1.966;2024-01-10T04:16:30;1.33;;;0.60;;
61590;SDS011;71994;52.410;-1.966;2024-01-10T04:19:53;2.05;;;0.70;;
61590;SDS011;71994;52.410;-1.966;2024-01-10T04:23:16;2.20;;;0.52;;
61590;SDS011;71994;52.410;-1.966;2024-01-10T04:26:41;1.75;;;0.63;;
61590;SDS011;71994;52.410;-1.966;2024-01-10T04:30:04;2.10;;;0.60;;
61590;SDS011;71994;52.410;-1.966;2024-01-10T04:33:28;1.10;;;0.60;;
61590;SDS011;71994;52.410;-1.966;2024-01-10T04:36:50;1.23;;;0.50;;
61590;SDS011;71994;52.410;-1.966;2024-01-10T04:40:12;1.55;;;0.75;;
61590;SDS011;71994;52.410;-1.966;2024-01-10T04:43:38;0.85;;;0.35;;
61590;SDS011;71994;52.410;-1.966;2024-01-10T04:47:00;0.75;;;0.40;;
61590;SDS011;71994;52.410;-1.966;2024-01-10T04:50:23;1.23;;;0.50;;
61590;SDS011;71994;52.410;-1.966;2024-01-10T04:53:45;1.95;;;0.60;;
61590;SDS011;71994;52.410;-1.966;2024-01-10T04:57:08;1.50;;;0.52;;
61590;SDS011;71994;52.410;-1.966;2024-01-10T05:00:33;1.60;;;0.50;;
61590;SDS011;71994;52.410;-1.966;2024-01-10T05:03:56;1.20;;;0.40;;
61590;SDS011;71994;52.410;-1.966;2024-01-10T05:07:19;1.60;;;0.70;;
61590;SDS011;71994;52.410;-1.966;2024-01-10T05:10:41;1.40;;;0.60;;
61590;SDS011;71994;52.410;-1.966;2024-01-10T05:14:04;0.85;;;0.47;;
61590;SDS011;71994;52.410;-1.966;2024-01-10T05:17:29;1.67;;;0.60;;
61590;SDS011;71994;52.410;-1.966;2024-01-10T05:20:51;1.98;;;0.60;;
61590;SDS011;71994;52.410;-1.966;2024-01-10T05:24:14;1.52;;;0.50;;
61590;SDS011;71994;52.410;-1.966;2024-01-10T05:27:38;1.17;;;0.47;;
61590;SDS011;71994;52.410;-1.966;2024-01-10T05:31:00;1.60;;;0.50;;
61590;SDS011;71994;52.410;-1.966;2024-01-10T05:34:26;0.43;;;0.40;;
61590;SDS011;71994;52.410;-1.966;2024-01-10T05:37:49;1.02;;;0.60;;
61590;SDS011;71994;52.410;-1.966;2024-01-10T05:41:11;1.50;;;0.55;;
61590;SDS011;71994;52.410;-1.966;2024-01-10T05:44:34;1.83;;;0.63;;
61590;SDS011;71994;52.410;-1.966;2024-01-10T05:47:58;1.13;;;0.47;;
61590;SDS011;71994;52.410;-1.966;2024-01-10T05:51:23;2.08;;;0.65;;
61590;SDS011;71994;52.410;-1.966;2024-01-10T05:54:46;1.02;;;0.50;;
61590;SDS011;71994;52.410;-1.966;2024-01-10T05:58:08;0.93;;;0.45;;
61590;SDS011;71994;52.410;-1.966;2024-01-10T06:01:31;1.35;;;0.63;;
61590;SDS011;71994;52.410;-1.966;2024-01-10T06:04:54;1.25;;;0.60;;
61590;SDS011;71994;52.410;-1.966;2024-01-10T06:08:19;0.88;;;0.40;;
61590;SDS011;71994;52.410;-1.966;2024-01-10T06:11:44;1.55;;;0.40;;
61590;SDS011;71994;52.410;-1.966;2024-01-10T06:15:07;1.35;;;0.40;;
61590;SDS011;71994;52.410;-1.966;2024-01-10T06:18:30;1.63;;;0.40;;
61590;SDS011;71994;52.410;-1.966;2024-01-10T06:21:53;1.80;;;0.70;;
61590;SDS011;71994;52.410;-1.966;2024-01-10T06:25:18;1.17;;;0.50;;
61590;SDS011;71994;52.410;-1.966;2024-01-10T06:28:42;1.17;;;0.40;;
61590;SDS011;71994;52.410;-1.966;2024-01-10T06:32:04;0.90;;;0.50;;
61590;SDS011;71994;52.410;-1.966;2024-01-10T06:35:27;0.80;;;0.45;;
61590;SDS011;71994;52.410;-1.966;2024-01-10T06:38:50;1.52;;;0.57;;
61590;SDS011;71994;52.410;-1.966;2024-01-10T06:42:15;1.10;;;0.60;;
61590;SDS011;71994;52.410;-1.966;2024-01-10T06:45:38;1.60;;;0.52;;
61590;SDS011;71994;52.410;-1.966;2024-01-10T06:49:01;1.38;;;0.43;;
61590;SDS011;71994;52.410;-1.966;2024-01-10T06:52:23;0.32;;;0.30;;
61590;SDS011;71994;52.410;-1.966;2024-01-10T06:55:46;0.98;;;0.50;;
61590;SDS011;71994;52.410;-1.966;2024-01-10T06:59:11;1.10;;;0.50;;
61590;SDS011;71994;52.410;-1.966;2024-01-10T07:02:34;0.63;;;0.50;;
61590;SDS011;71994;52.410;-1.966;2024-01-10T07:05:56;1.08;;;0.47;;
61590;SDS011;71994;52.410;-1.966;2024-01-10T07:09:19;1.27;;;0.50;;
61590;SDS011;71994;52.410;-1.966;2024-01-10T07:12:42;1.23;;;0.60;;
61590;SDS011;71994;52.410;-1.966;2024-01-10T07:16:07;1.25;;;0.50;;
61590;SDS011;71994;52.410;-1.966;2024-01-10T07:19:30;1.70;;;0.50;;
61590;SDS011;71994;52.410;-1.966;2024-01-10T07:22:52;1.65;;;0.60;;
61590;SDS011;71994;52.410;-1.966;2024-01-10T07:26:15;2.78;;;0.50;;
61590;SDS011;71994;52.410;-1.966;2024-01-10T07:29:38;2.95;;;0.60;;
61590;SDS011;71994;52.410;-1.966;2024-01-10T07:33:03;2.25;;;0.50;;
61590;SDS011;71994;52.410;-1.966;2024-01-10T07:36:26;1.67;;;0.68;;
61590;SDS011;71994;52.410;-1.966;2024-01-10T07:39:52;2.25;;;0.70;;
61590;SDS011;71994;52.410;-1.966;2024-01-10T07:43:16;1.10;;;0.50;;
61590;SDS011;71994;52.410;-1.966;2024-01-10T07:46:38;1.08;;;0.43;;
61590;SDS011;71994;52.410;-1.966;2024-01-10T07:50:04;5.05;;;0.50;;
61590;SDS011;71994;52.410;-1.966;2024-01-10T07:53:26;3.10;;;0.65;;
61590;SDS011;71994;52.410;-1.966;2024-01-10T07:56:49;1.77;;;0.38;;
61590;SDS011;71994;52.410;-1.966;2024-01-10T08:00:16;2.38;;;0.50;;
61590;SDS011;71994;52.410;-1.966;2024-01-10T08:03:39;1.90;;;0.60;;
61590;SDS011;71994;52.410;-1.966;2024-01-10T08:07:05;1.35;;;0.63;;
61590;SDS011;71994;52.410;-1.966;2024-01-10T08:10:28;1.45;;;0.55;;
61590;SDS011;71994;52.410;-1.966;2024-01-10T08:13:51;2.30;;;0.60;;
61590;SDS011;71994;52.410;-1.966;2024-01-10T08:17:14;1.90;;;0.60;;
61590;SDS011;71994;52.410;-1.966;2024-01-10T08:20:38;2.25;;;0.60;;
61590;SDS011;71994;52.410;-1.966;2024-01-10T08:24:04;2.58;;;0.52;;
61590;SDS011;71994;52.410;-1.966;2024-01-10T08:27:28;0.90;;;0.50;;
61590;SDS011;71994;52.410;-1.966;2024-01-10T08:30:50;8.85;;;0.88;;
61590;SDS011;71994;52.410;-1.966;2024-01-10T08:34:13;1.85;;;0.50;;
61590;SDS011;71994;52.410;-1.966;2024-01-10T08:37:40;2.05;;;0.70;;
61590;SDS011;71994;52.410;-1.966;2024-01-10T08:41:10;1.40;;;0.43;;
61590;SDS011;71994;52.410;-1.966;2024-01-10T08:44:33;2.35;;;0.70;;
61590;SDS011;71994;52.410;-1.966;2024-01-10T08:47:56;2.33;;;0.57;;
61590;SDS011;71994;52.410;-1.966;2024-01-10T08:51:19;3.30;;;0.65;;
61590;SDS011;71994;52.410;-1.966;2024-01-10T08:54:42;4.55;;;0.73;;
61590;SDS011;71994;52.410;-1.966;2024-01-10T08:58:07;7.20;;;0.80;;
61590;SDS011;71994;52.410;-1.966;2024-01-10T09:01:30;1.45;;;0.52;;
61590;SDS011;71994;52.410;-1.966;2024-01-10T09:04:52;1.92;;;0.63;;
61590;SDS011;71994;52.410;-1.966;2024-01-10T09:08:15;1.98;;;0.63;;
61590;SDS011;71994;52.410;-1.966;2024-01-10T09:11:38;2.00;;;0.50;;
61590;SDS011;71994;52.410;-1.966;2024-01-10T09:15:03;2.92;;;0.60;;
61590;SDS011;71994;52.410;-1.966;2024-01-10T09:18:27;1.38;;;0.60;;
61590;SDS011;71994;52.410;-1.966;2024-01-10T09:21:49;2.50;;;0.60;;
61590;SDS011;71994;52.410;-1.966;2024-01-10T09:25:16;2.55;;;0.50;;
61590;SDS011;71994;52.410;-1.966;2024-01-10T09:28:39;1.67;;;0.77;;
61590;SDS011;71994;52.410;-1.966;2024-01-10T09:32:07;1.48;;;0.70;;
61590;SDS011;71994;52.410;-1.966;2024-01-10T09:35:30;3.10;;;0.80;;
61590;SDS011;71994;52.410;-1.966;2024-01-10T09:38:52;2.17;;;0.70;;
61590;SDS011;71994;52.410;-1.966;2024-01-10T09:42:15;2.97;;;0.90;;
61590;SDS011;71994;52.410;-1.966;2024-01-10T09:45:40;1.90;;;0.90;;
61590;SDS011;71994;52.410;-1.966;2024-01-10T09:49:10;2.83;;;0.77;;
61590;SDS011;71994;52.410;-1.966;2024-01-10T09:52:34;1.95;;;0.70;;
61590;SDS011;71994;52.410;-1.966;2024-01-10T09:56:03;2.38;;;0.70;;
61590;SDS011;71994;52.410;-1.966;2024-01-10T09:59:27;3.35;;;0.80;;
61590;SDS011;71994;52.410;-1.966;2024-01-10T10:02:49;2.58;;;0.60;;
61590;SDS011;71994;52.410;-1.966;2024-01-10T10:06:16;2.15;;;0.90;;
61590;SDS011;71994;52.410;-1.966;2024-01-10T10:09:39;3.78;;;0.65;;
61590;SDS011;71994;52.410;-1.966;2024-01-10T10:13:01;2.55;;;0.80;;
61590;SDS011;71994;52.410;-1.966;2024-01-10T10:16:26;2.13;;;0.90;;
61590;SDS011;71994;52.410;-1.966;2024-01-10T10:19:49;1.70;;;0.80;;
61590;SDS011;71994;52.410;-1.966;2024-01-10T10:23:14;1.75;;;0.85;;
61590;SDS011;71994;52.410;-1.966;2024-01-10T10:26:37;2.17;;;0.70;;
61590;SDS011;71994;52.410;-1.966;2024-01-10T10:30:00;2.13;;;0.75;;
61590;SDS011;71994;52.410;-1.966;2024-01-10T10:33:23;1.08;;;0.70;;
61590;SDS011;71994;52.410;-1.966;2024-01-10T10:36:46;1.60;;;0.70;;
61590;SDS011;71994;52.410;-1.966;2024-01-10T10:40:12;1.63;;;0.60;;
61590;SDS011;71994;52.410;-1.966;2024-01-10T10:43:35;1.52;;;0.60;;
61590;SDS011;71994;52.410;-1.966;2024-01-10T10:46:58;1.75;;;0.70;;
61590;SDS011;71994;52.410;-1.966;2024-01-10T10:50:28;1.70;;;0.50;;
61590;SDS011;71994;52.410;-1.966;2024-01-10T10:53:55;1.98;;;0.80;;
61590;SDS011;71994;52.410;-1.966;2024-01-10T10:57:22;1.90;;;0.77;;
61590;SDS011;71994;52.410;-1.966;2024-01-10T11:00:47;1.80;;;0.70;;
61590;SDS011;71994;52.410;-1.966;2024-01-10T11:04:10;1.85;;;0.63;;
61590;SDS011;71994;52.410;-1.966;2024-01-10T11:07:34;1.88;;;0.70;;
61590;SDS011;71994;52.410;-1.966;2024-01-10T11:10:58;2.00;;;0.80;;
61590;SDS011;71994;52.410;-1.966;2024-01-10T11:14:26;1.98;;;0.93;;
61590;SDS011;71994;52.410;-1.966;2024-01-10T11:21:56;1.45;;;0.80;;
61590;SDS011;71994;52.410;-1.966;2024-01-10T11:25:29;1.73;;;0.70;;
61590;SDS011;71994;52.410;-1.966;2024-01-10T11:28:53;1.50;;;0.77;;
61590;SDS011;71994;52.410;-1.966;2024-01-10T11:32:22;1.38;;;0.65;;
61590;SDS011;71994;52.410;-1.966;2024-01-10T11:39:30;1.40;;;0.70;;
61590;SDS011;71994;52.410;-1.966;2024-01-10T11:42:53;1.02;;;0.60;;
61590;SDS011;71994;52.410;-1.966;2024-01-10T11:46:15;1.23;;;0.70;;
61590;SDS011;71994;52.410;-1.966;2024-01-10T11:49:41;1.23;;;0.80;;
61590;SDS011;71994;52.410;-1.966;2024-01-10T11:53:27;0.80;;;0.60;;
61590;SDS011;71994;52.410;-1.966;2024-01-10T11:57:01;1.17;;;0.70;;
61590;SDS011;71994;52.410;-1.966;2024-01-10T12:00:23;0.95;;;0.50;;
61590;SDS011;71994;52.410;-1.966;2024-01-10T12:03:48;1.05;;;0.70;;
61590;SDS011;71994;52.410;-1.966;2024-01-10T12:07:16;1.70;;;0.73;;
61590;SDS011;71994;52.410;-1.966;2024-01-10T12:10:40;0.85;;;0.60;;
61590;SDS011;71994;52.410;-1.966;2024-01-10T12:14:02;2.72;;;0.70;;
61590;SDS011;71994;52.410;-1.966;2024-01-10T12:17:26;0.95;;;0.50;;
61590;SDS011;71994;52.410;-1.966;2024-01-10T12:20:49;1.27;;;0.50;;
61590;SDS011;71994;52.410;-1.966;2024-01-10T12:24:15;0.70;;;0.47;;
61590;SDS011;71994;52.410;-1.966;2024-01-10T12:27:38;1.20;;;0.63;;
61590;SDS011;71994;52.410;-1.966;2024-01-10T12:31:01;1.05;;;0.60;;
61590;SDS011;71994;52.410;-1.966;2024-01-10T12:34:26;1.20;;;0.50;;
61590;SDS011;71994;52.410;-1.966;2024-01-10T12:37:54;0.93;;;0.57;;
61590;SDS011;71994;52.410;-1.966;2024-01-10T12:41:20;1.07;;;0.60;;
61590;SDS011;71994;52.410;-1.966;2024-01-10T12:44:43;1.00;;;0.68;;
61590;SDS011;71994;52.410;-1.966;2024-01-10T12:48:12;1.58;;;0.63;;
61590;SDS011;71994;52.410;-1.966;2024-01-10T12:51:36;1.23;;;0.40;;
61590;SDS011;71994;52.410;-1.966;2024-01-10T12:54:58;2.05;;;0.65;;
61590;SDS011;71994;52.410;-1.966;2024-01-10T12:58:24;1.40;;;0.60;;
61590;SDS011;71994;52.410;-1.966;2024-01-10T13:01:46;0.93;;;0.52;;
61590;SDS011;71994;52.410;-1.966;2024-01-10T13:05:09;1.38;;;0.68;;
61590;SDS011;71994;52.410;-1.966;2024-01-10T13:08:31;0.90;;;0.52;;
61590;SDS011;71994;52.410;-1.966;2024-01-10T13:11:54;0.85;;;0.50;;
61590;SDS011;71994;52.410;-1.966;2024-01-10T13:15:20;0.80;;;0.45;;
61590;SDS011;71994;52.410;-1.966;2024-01-10T13:18:42;1.20;;;0.50;;
61590;SDS011;71994;52.410;-1.966;2024-01-10T13:22:05;0.93;;;0.50;;
61590;SDS011;71994;52.410;-1.966;2024-01-10T13:25:28;1.13;;;0.50;;
61590;SDS011;71994;52.410;-1.966;2024-01-10T13:28:50;2.15;;;0.65;;
61590;SDS011;71994;52.410;-1.966;2024-01-10T13:32:16;0.75;;;0.50;;
61590;SDS011;71994;52.410;-1.966;2024-01-10T13:35:38;1.30;;;0.70;;
61590;SDS011;71994;52.410;-1.966;2024-01-10T13:39:01;1.35;;;0.70;;
61590;SDS011;71994;52.410;-1.966;2024-01-10T13:42:24;1.40;;;0.70;;
61590;SDS011;71994;52.410;-1.966;2024-01-10T13:45:46;2.08;;;0.70;;
61590;SDS011;71994;52.410;-1.966;2024-01-10T13:49:13;1.55;;;0.75;;
61590;SDS011;71994;52.410;-1.966;2024-01-10T13:52:36;1.23;;;0.80;;
61590;SDS011;71994;52.410;-1.966;2024-01-10T13:56:02;1.20;;;0.68;;
61590;SDS011;71994;52.410;-1.966;2024-01-10T13:59:25;4.60;;;0.80;;
61590;SDS011;71994;52.410;-1.966;2024-01-10T14:02:47;1.85;;;0.70;;
61590;SDS011;71994;52.410;-1.966;2024-01-10T14:06:16;0.80;;;0.60;;
61590;SDS011;71994;52.410;-1.966;2024-01-10T14:09:39;2.50;;;0.80;;
61590;SDS011;71994;52.410;-1.966;2024-01-10T14:13:01;1.10;;;0.63;;
61590;SDS011;71994;52.410;-1.966;2024-01-10T14:16:25;1.20;;;0.70;;
61590;SDS011;71994;52.410;-1.966;2024-01-10T14:19:47;1.67;;;0.70;;
61590;SDS011;71994;52.410;-1.966;2024-01-10T14:23:13;1.75;;;0.70;;
61590;SDS011;71994;52.410;-1.966;2024-01-10T14:26:36;1.48;;;0.70;;
61590;SDS011;71994;52.410;-1.966;2024-01-10T14:29:59;0.60;;;0.40;;
61590;SDS011;71994;52.410;-1.966;2024-01-10T14:33:22;1.52;;;0.60;;
61590;SDS011;71994;52.410;-1.966;2024-01-10T14:36:44;1.85;;;0.70;;
61590;SDS011;71994;52.410;-1.966;2024-01-10T14:40:10;1.40;;;0.65;;
61590;SDS011;71994;52.410;-1.966;2024-01-10T14:43:35;1.38;;;0.80;;
61590;SDS011;71994;52.410;-1.966;2024-01-10T14:47:07;2.58;;;0.60;;
61590;SDS011;71994;52.410;-1.966;2024-01-10T14:50:30;0.75;;;0.60;;
61590;SDS011;71994;52.410;-1.966;2024-01-10T14:54:03;1.17;;;0.65;;
61590;SDS011;71994;52.410;-1.966;2024-01-10T14:57:42;1.77;;;1.05;;
61590;SDS011;71994;52.410;-1.966;2024-01-10T15:01:18;1.73;;;0.80;;
61590;SDS011;71994;52.410;-1.966;2024-01-10T15:04:42;1.25;;;0.70;;
61590;SDS011;71994;52.410;-1.966;2024-01-10T15:08:12;1.02;;;0.70;;
61590;SDS011;71994;52.410;-1.966;2024-01-10T15:11:43;0.80;;;0.60;;
61590;SDS011;71994;52.410;-1.966;2024-01-10T15:15:53;1.52;;;0.73;;
61590;SDS011;71994;52.410;-1.966;2024-01-10T15:20:09;2.35;;;0.73;;
61590;SDS011;71994;52.410;-1.966;2024-01-10T15:23:35;1.02;;;0.70;;
61590;SDS011;71994;52.410;-1.966;2024-01-10T15:26:58;1.63;;;0.80;;
61590;SDS011;71994;52.410;-1.966;2024-01-10T15:30:25;2.10;;;0.90;;
61590;SDS011;71994;52.410;-1.966;2024-01-10T15:33:50;1.50;;;0.70;;
61590;SDS011;71994;52.410;-1.966;2024-01-10T15:37:12;1.65;;;0.73;;
61590;SDS011;71994;52.410;-1.966;2024-01-10T15:40:35;1.10;;;0.70;;
61590;SDS011;71994;52.410;-1.966;2024-01-10T15:43:58;1.30;;;0.77;;
61590;SDS011;71994;52.410;-1.966;2024-01-10T15:47:22;2.20;;;0.70;;
61590;SDS011;71994;52.410;-1.966;2024-01-10T15:50:47;1.45;;;0.75;;
61590;SDS011;71994;52.410;-1.966;2024-01-10T15:54:09;1.33;;;0.65;;
61590;SDS011;71994;52.410;-1.966;2024-01-10T15:57:32;1.27;;;0.70;;
61590;SDS011;71994;52.410;-1.966;2024-01-10T16:00:54;1.88;;;1.10;;
61590;SDS011;71994;52.410;-1.966;2024-01-10T16:04:17;2.20;;;1.30;;
61590;SDS011;71994;52.410;-1.966;2024-01-10T16:07:42;1.88;;;1.23;;
61590;SDS011;71994;52.410;-1.966;2024-01-10T16:11:05;2.75;;;1.08;;
61590;SDS011;71994;52.410;-1.966;2024-01-10T16:14:27;2.05;;;1.00;;
61590;SDS011;71994;52.410;-1.966;2024-01-10T16:17:50;1.98;;;1.20;;
61590;SDS011;71994;52.410;-1.966;2024-01-10T16:21:12;2.22;;;1.08;;
61590;SDS011;71994;52.410;-1.966;2024-01-10T16:24:38;1.60;;;0.90;;
61590;SDS011;71994;52.410;-1.966;2024-01-10T16:28:00;2.67;;;1.10;;
61590;SDS011;71994;52.410;-1.966;2024-01-10T16:31:23;1.48;;;0.80;;
61590;SDS011;71994;52.410;-1.966;2024-01-10T16:34:46;1.60;;;0.98;;
61590;SDS011;71994;52.410;-1.966;2024-01-10T16:38:10;2.50;;;0.90;;
61590;SDS011;71994;52.410;-1.966;2024-01-10T16:41:35;2.20;;;1.00;;
61590;SDS011;71994;52.410;-1.966;2024-01-10T16:44:58;1.75;;;0.90;;
61590;SDS011;71994;52.410;-1.966;2024-01-10T16:48:21;1.30;;;0.90;;
61590;SDS011;71994;52.410;-1.966;2024-01-10T16:51:43;1.95;;;0.93;;
61590;SDS011;71994;52.410;-1.966;2024-01-10T16:55:06;1.23;;;0.88;;
61590;SDS011;71994;52.410;-1.966;2024-01-10T16:58:32;1.73;;;1.10;;
61590;SDS011;71994;52.410;-1.966;2024-01-10T17:01:54;1.20;;;0.90;;
61590;SDS011;71994;52.410;-1.966;2024-01-10T17:05:18;1.55;;;1.00;;
61590;SDS011;71994;52.410;-1.966;2024-01-10T17:08:41;2.00;;;1.00;;
61590;SDS011;71994;52.410;-1.966;2024-01-10T17:12:04;1.65;;;1.00;;
61590;SDS011;71994;52.410;-1.966;2024-01-10T17:15:30;1.70;;;1.00;;
61590;SDS011;71994;52.410;-1.966;2024-01-10T17:18:53;3.38;;;1.00;;
61590;SDS011;71994;52.410;-1.966;2024-01-10T17:22:15;1.55;;;0.98;;
61590;SDS011;71994;52.410;-1.966;2024-01-10T17:25:38;2.13;;;1.00;;
61590;SDS011;71994;52.410;-1.966;2024-01-10T17:29:01;1.52;;;1.00;;
61590;SDS011;71994;52.410;-1.966;2024-01-10T17:32:26;1.50;;;1.00;;
61590;SDS011;71994;52.410;-1.966;2024-01-10T17:35:49;4.35;;;1.25;;
61590;SDS011;71994;52.410;-1.966;2024-01-10T17:39:11;1.60;;;1.10;;
61590;SDS011;71994;52.410;-1.966;2024-01-10T17:42:34;1.90;;;1.08;;
61590;SDS011;71994;52.410;-1.966;2024-01-10T17:45:56;1.85;;;1.20;;
61590;SDS011;71994;52.410;-1.966;2024-01-10T17:49:22;2.08;;;1.10;;
61590;SDS011;71994;52.410;-1.966;2024-01-10T17:52:45;2.33;;;1.40;;
61590;SDS011;71994;52.410;-1.966;2024-01-10T17:56:07;1.50;;;1.10;;
61590;SDS011;71994;52.410;-1.966;2024-01-10T17:59:30;1.65;;;1.20;;
61590;SDS011;71994;52.410;-1.966;2024-01-10T18:02:52;2.70;;;1.20;;
61590;SDS011;71994;52.410;-1.966;2024-01-10T18:06:20;2.00;;;1.40;;
61590;SDS011;71994;52.410;-1.966;2024-01-10T18:09:43;2.28;;;1.50;;
61590;SDS011;71994;52.410;-1.966;2024-01-10T18:13:06;3.33;;;1.50;;
61590;SDS011;71994;52.410;-1.966;2024-01-10T18:16:28;2.92;;;1.98;;
61590;SDS011;71994;52.410;-1.966;2024-01-10T18:19:51;3.00;;;1.73;;
61590;SDS011;71994;52.410;-1.966;2024-01-10T18:23:16;4.78;;;1.70;;
61590;SDS011;71994;52.410;-1.966;2024-01-10T18:26:39;3.13;;;1.80;;
61590;SDS011;71994;52.410;-1.966;2024-01-10T18:30:02;2.75;;;1.52;;
61590;SDS011;71994;52.410;-1.966;2024-01-10T18:33:26;2.95;;;1.60;;
61590;SDS011;71994;52.410;-1.966;2024-01-10T18:36:48;4.38;;;1.77;;
61590;SDS011;71994;52.410;-1.966;2024-01-10T18:40:14;2.47;;;1.60;;
61590;SDS011;71994;52.410;-1.966;2024-01-10T18:43:37;2.63;;;1.65;;
61590;SDS011;71994;52.410;-1.966;2024-01-10T18:46:59;2.75;;;1.60;;
61590;SDS011;71994;52.410;-1.966;2024-01-10T18:50:25;2.88;;;1.63;;
61590;SDS011;71994;52.410;-1.966;2024-01-10T18:53:47;4.53;;;1.30;;
61590;SDS011;71994;52.410;-1.966;2024-01-10T18:57:13;1.88;;;1.30;;
61590;SDS011;71994;52.410;-1.966;2024-01-10T19:00:36;2.30;;;1.50;;
61590;SDS011;71994;52.410;-1.966;2024-01-10T19:03:59;2.00;;;1.25;;
61590;SDS011;71994;52.410;-1.966;2024-01-10T19:07:21;2.78;;;1.52;;
61590;SDS011;71994;52.410;-1.966;2024-01-10T19:10:44;2.50;;;1.30;;
61590;SDS011;71994;52.410;-1.966;2024-01-10T19:14:10;2.10;;;1.23;;
61590;SDS011;71994;52.410;-1.966;2024-01-10T19:17:32;2.97;;;1.20;;
61590;SDS011;71994;52.410;-1.966;2024-01-10T19:20:56;1.80;;;1.05;;
61590;SDS011;71994;52.410;-1.966;2024-01-10T19:24:18;3.35;;;1.30;;
61590;SDS011;71994;52.410;-1.966;2024-01-10T19:27:41;2.65;;;1.13;;
61590;SDS011;71994;52.410;-1.966;2024-01-10T19:31:07;2.58;;;1.10;;
61590;SDS011;71994;52.410;-1.966;2024-01-10T19:34:29;2.17;;;1.27;;
61590;SDS011;71994;52.410;-1.966;2024-01-10T19:37:56;2.78;;;1.10;;
61590;SDS011;71994;52.410;-1.966;2024-01-10T19:41:19;1.73;;;1.10;;
61590;SDS011;71994;52.410;-1.966;2024-01-10T19:44:44;1.77;;;1.20;;
61590;SDS011;71994;52.410;-1.966;2024-01-10T19:48:09;4.40;;;1.10;;
61590;SDS011;71994;52.410;-1.966;2024-01-10T19:51:35;5.85;;;1.60;;
61590;SDS011;71994;52.410;-1.966;2024-01-10T19:54:58;4.07;;;1.40;;
61590;SDS011;71994;52.410;-1.966;2024-01-10T19:58:20;1.92;;;1.17;;
61590;SDS011;71994;52.410;-1.966;2024-01-10T20:05:31;2.00;;;1.05;;
61590;SDS011;71994;52.410;-1.966;2024-01-10T20:08:54;3.67;;;0.90;;
61590;SDS011;71994;52.410;-1.966;2024-01-10T20:12:17;3.88;;;1.00;;
61590;SDS011;71994;52.410;-1.966;2024-01-10T20:15:40;4.13;;;1.20;;
61590;SDS011;71994;52.410;-1.966;2024-01-10T20:19:05;1.50;;;0.90;;
61590;SDS011;71994;52.410;-1.966;2024-01-10T20:22:35;1.35;;;0.95;;